sensor_id;sensor_type;location;lat;lon;timestamp;P1;durP1;ratioP1;P2;durP2;ratioP2
9884;SDS011;4981;50.966;4.842;2023-07-22T09:33:44;5.23;;;2.33;;
9884;SDS011;4981;50.966;4.842;2023-07-22T09:36:11;7.63;;;2.67;;
9884;SDS011;4981;50.966;4.842;2023-07-22T09:38:38;2.80;;;2.13;;
9884;SDS011;4981;50.966;4.842;2023-07-22T09:41:05;3.47;;;2.03;;
9884;SDS011;4981;50.966;4.842;2023-07-22T09:43:35;6.53;;;2.23;;
9884;SDS011;4981;50.966;4.842;2023-07-22T09:46:07;5.70;;;2.07;;
9884;SDS011;4981;50.966;4.842;2023-07-22T09:48:41;5.43;;;2.20;;
9884;SDS011;4981;50.966;4.842;2023-07-22T09:51:15;2.70;;;2.00;;
9884;SDS011;4981;50.966;4.842;2023-07-22T09:53:45;4.10;;;2.23;;
9884;SDS011;4981;50.966;4.842;2023-07-22T09:56:13;3.30;;;1.97;;
9884;SDS011;4981;50.966;4.842;2023-07-22T09:58:40;1.87;;;1.50;;
9884;SDS011;4981;50.966;4.842;2023-07-22T10:01:08;6.27;;;2.60;;
9884;SDS011;4981;50.966;4.842;2023-07-22T10:03:41;4.80;;;2.10;;
9884;SDS011;4981;50.966;4.842;2023-07-22T10:06:11;5.28;;;2.00;;
9884;SDS011;4981;50.966;4.842;2023-07-22T10:08:41;5.70;;;2.20;;
9884;SDS011;4981;50.966;4.842;2023-07-22T10:11:13;3.83;;;1.93;;
9884;SDS011;4981;50.966;4.842;2023-07-22T10:13:41;4.28;;;1.95;;
9884;SDS011;4981;50.966;4.842;2023-07-22T10:16:08;5.32;;;2.10;;
9884;SDS011;4981;50.966;4.842;2023-07-22T10:18:36;6.45;;;2.55;;
9884;SDS011;4981;50.966;4.842;2023-07-22T10:21:06;3.55;;;2.25;;
9884;SDS011;4981;50.966;4.842;2023-07-22T10:23:34;4.07;;;2.20;;
9884;SDS011;4981;50.966;4.842;2023-07-22T10:26:04;4.95;;;2.05;;
9884;SDS011;4981;50.966;4.842;2023-07-22T10:28:32;2.87;;;2.07;;
9884;SDS011;4981;50.966;4.842;2023-07-22T10:30:59;5.17;;;2.37;;
9884;SDS011;4981;50.966;4.842;2023-07-22T15:21:49;3.90;;;1.55;;
9884;SDS011;4981;50.966;4.842;2023-07-22T15:24:16;2.22;;;1.25;;
9884;SDS011;4981;50.966;4.842;2023-07-22T15:26:43;4.00;;;1.50;;
9884;SDS011;4981;50.966;4.842;2023-07-22T15:29:10;4.88;;;1.60;;
9884;SDS011;4981;50.966;4.842;2023-07-22T15:31:37;4.38;;;1.80;;
9884;SDS011;4981;50.966;4.842;2023-07-22T15:34:04;7.82;;;1.80;;
9884;SDS011;4981;50.966;4.842;2023-07-22T15:36:33;3.97;;;1.40;;
9884;SDS011;4981;50.966;4.842;2023-07-22T15:39:00;3.17;;;1.30;;
9884;SDS011;4981;50.966;4.842;2023-07-22T15:41:28;4.20;;;1.67;;
9884;SDS011;4981;50.966;4.842;2023-07-22T15:43:55;7.43;;;1.67;;
9884;SDS011;4981;50.966;4.842;2023-07-22T15:46:22;6.20;;;1.50;;
9884;SDS011;4981;50.966;4.842;2023-07-22T15:48:49;2.88;;;1.45;;
9884;SDS011;4981;50.966;4.842;2023-07-22T15:51:16;6.10;;;1.88;;
9884;SDS011;4981;50.966;4.842;2023-07-22T15:53:44;2.90;;;1.45;;
9884;SDS011;4981;50.966;4.842;2023-07-22T15:56:11;4.18;;;1.55;;
9884;SDS011;4981;50.966;4.842;2023-07-22T15:58:38;9.05;;;1.90;;
9884;SDS011;4981;50.966;4.842;2023-07-22T16:01:06;5.40;;;1.80;;
9884;SDS011;4981;50.966;4.842;2023-07-22T16:03:34;3.28;;;1.50;;
9884;SDS011;4981;50.966;4.842;2023-07-22T16:06:03;4.40;;;1.55;;
9884;SDS011;4981;50.966;4.842;2023-07-22T16:08:30;5.82;;;1.70;;
9884;SDS011;4981;50.966;4.842;2023-07-22T16:10:59;3.30;;;1.63;;
9884;SDS011;4981;50.966;4.842;2023-07-22T16:13:26;3.80;;;1.55;;
9884;SDS011;4981;50.966;4.842;2023-07-22T16:15:53;4.13;;;1.60;;
9884;SDS011;4981;50.966;4.842;2023-07-22T16:18:20;5.32;;;1.88;;
9884;SDS011;4981;50.966;4.842;2023-07-22T16:20:47;3.15;;;1.27;;
9884;SDS011;4981;50.966;4.842;2023-07-22T16:23:14;3.15;;;1.50;;
9884;SDS011;4981;50.966;4.842;2023-07-22T16:25:41;5.38;;;1.67;;
9884;SDS011;4981;50.966;4.842;2023-07-22T16:28:09;3.03;;;1.30;;
9884;SDS011;4981;50.966;4.842;2023-07-22T16:30:36;4.60;;;1.40;;
9884;SDS011;4981;50.966;4.842;2023-07-22T16:33:03;4.55;;;1.55;;
9884;SDS011;4981;50.966;4.842;2023-07-22T16:35:30;5.45;;;1.80;;
9884;SDS011;4981;50.966;4.842;2023-07-22T16:37:57;3.38;;;1.92;;
9884;SDS011;4981;50.966;4.842;2023-07-22T16:40:25;4.45;;;1.65;;
9884;SDS011;4981;50.966;4.842;2023-07-22T16:42:52;2.65;;;1.60;;
9884;SDS011;4981;50.966;4.842;2023-07-22T16:45:20;3.88;;;1.58;;
9884;SDS011;4981;50.966;4.842;2023-07-22T16:47:47;4.00;;;1.35;;
9884;SDS011;4981;50.966;4.842;2023-07-22T16:50:14;3.97;;;1.52;;
9884;SDS011;4981;50.966;4.842;2023-07-22T16:52:42;5.40;;;1.75;;
9884;SDS011;4981;50.966;4.842;2023-07-22T16:55:08;5.10;;;1.70;;
9884;SDS011;4981;50.966;4.842;2023-07-22T16:57:36;4.60;;;1.65;;
9884;SDS011;4981;50.966;4.842;2023-07-22T17:00:05;3.65;;;1.80;;
9884;SDS011;4981;50.966;4.842;2023-07-22T17:02:37;2.92;;;1.58;;
9884;SDS011;4981;50.966;4.842;2023-07-22T17:05:08;3.53;;;1.80;;
9884;SDS011;4981;50.966;4.842;2023-07-22T17:07:35;3.25;;;1.77;;
9884;SDS011;4981;50.966;4.842;2023-07-22T17:10:03;4.15;;;1.42;;
9884;SDS011;4981;50.966;4.842;2023-07-22T17:12:30;4.43;;;1.50;;
9884;SDS011;4981;50.966;4.842;2023-07-22T17:14:57;10.95;;;1.75;;
9884;SDS011;4981;50.966;4.842;2023-07-22T17:17:24;4.45;;;1.80;;
